NCAR-RAP Real-Time Weather Data

Output produced by METARs form (24 January 2017  09:06 UTC)
found at http://weather.rap.ucar.edu/surface/
 
Conditions at: K4O4 observed 24 January 2017  08:55 UTC
Temperature: 5.0°C (41°F)
Dewpoint: 1.0°C (34°F) [RH = 75%]
Pressure (altimeter): 29.79 inches Hg (1008.9 mb)
Winds: from the E (90 degrees) at 7 MPH (6 knots; 3.1 m/s)
Visibility: 10 or more miles (16+ km)
Ceiling: at least 12,000 feet AGL
Clouds: sky clear below 12,000 feet AGL
Present Weather: automated observation with no human augmentation;
there may or may not be significant weather present at this time
K4O4 240855Z AUTO 09006KT 10SM CLR 05/01 A2979 RMK AO2